Pagina principale
METAR-TAF:

METAR-TAF

Aeroporti :

Tarvisio, Italia

latitudine: 46-30N, longitudine: 013-35E, altezza: 777 m

Osservazione

Il bollettino è stato emesso 16 ore e 31 minuti fa, alle 17:55 UTC
Vento calmo
Temperature 5°C
Umidità 65%
Pressione 1014 hPa
Visibilità 10 km o più
Nubi sparse ad un'altezza di 3500 ft

METAR: LIVO 081755Z 00000KT 9999 SCT035 05/M01 Q1014 RMK SCT VIS MIN 9999

Ora: 11:26 (10:26 UTC)


TAF: mancante

Osservazioni e previsioni meteorologiche di più di 4000 aeroporti (messaggi METAR e TAF).

Le stazioni disponibili sono rappresentate dai dischi gialli e rossi sulla carta.

Puntare il mouse per vedere il nome della stazione.

Clicca sopra per visualizzare le osservazioni e previsioni meteorologiche.

Per cambiare la mappa : fare clic sui pulsanti verdi con una croce nera per ingrandire, il pulsante verde con un trattino per diminuire, o sulla freccia verde per le mappe adiacenti.


METAR-TAF: